sensor_id;sensor_type;location;lat;lon;timestamp;P1;durP1;ratioP1;P2;durP2;ratioP2
11709;SDS011;5911;51.036;6.972;2024-02-26T00:00:06;5.97;;;3.08;;
11709;SDS011;5911;51.036;6.972;2024-02-26T00:02:37;5.53;;;3.53;;
11709;SDS011;5911;51.036;6.972;2024-02-26T00:05:06;4.40;;;2.40;;
11709;SDS011;5911;51.036;6.972;2024-02-26T00:07:34;3.15;;;1.77;;
11709;SDS011;5911;51.036;6.972;2024-02-26T00:10:02;3.80;;;1.92;;
11709;SDS011;5911;51.036;6.972;2024-02-26T00:12:30;3.65;;;2.38;;
11709;SDS011;5911;51.036;6.972;2024-02-26T00:14:57;2.07;;;1.30;;
11709;SDS011;5911;51.036;6.972;2024-02-26T00:17:25;2.63;;;1.75;;
11709;SDS011;5911;51.036;6.972;2024-02-26T00:19:54;2.53;;;1.70;;
11709;SDS011;5911;51.036;6.972;2024-02-26T00:22:21;3.93;;;1.90;;
11709;SDS011;5911;51.036;6.972;2024-02-26T00:24:49;3.30;;;2.27;;
11709;SDS011;5911;51.036;6.972;2024-02-26T00:27:16;2.20;;;1.87;;
11709;SDS011;5911;51.036;6.972;2024-02-26T00:29:44;4.45;;;2.08;;
11709;SDS011;5911;51.036;6.972;2024-02-26T00:32:11;1.83;;;1.52;;
11709;SDS011;5911;51.036;6.972;2024-02-26T00:34:39;2.30;;;1.30;;
11709;SDS011;5911;51.036;6.972;2024-02-26T00:37:08;1.23;;;1.13;;
11709;SDS011;5911;51.036;6.972;2024-02-26T00:39:35;1.38;;;0.80;;
11709;SDS011;5911;51.036;6.972;2024-02-26T00:42:03;1.73;;;1.10;;
11709;SDS011;5911;51.036;6.972;2024-02-26T00:44:30;1.00;;;0.90;;
11709;SDS011;5911;51.036;6.972;2024-02-26T00:46:58;1.83;;;1.00;;
11709;SDS011;5911;51.036;6.972;2024-02-26T00:49:25;2.03;;;1.00;;
11709;SDS011;5911;51.036;6.972;2024-02-26T00:51:53;2.03;;;1.40;;
11709;SDS011;5911;51.036;6.972;2024-02-26T00:54:22;1.53;;;1.30;;
11709;SDS011;5911;51.036;6.972;2024-02-26T00:56:49;1.30;;;1.20;;
11709;SDS011;5911;51.036;6.972;2024-02-26T00:59:17;1.10;;;1.00;;
11709;SDS011;5911;51.036;6.972;2024-02-26T01:01:44;0.90;;;0.90;;
11709;SDS011;5911;51.036;6.972;2024-02-26T01:04:12;1.00;;;0.90;;
11709;SDS011;5911;51.036;6.972;2024-02-26T01:06:39;0.80;;;0.80;;
11709;SDS011;5911;51.036;6.972;2024-02-26T01:09:07;0.90;;;0.90;;
11709;SDS011;5911;51.036;6.972;2024-02-26T01:11:37;1.27;;;1.10;;
11709;SDS011;5911;51.036;6.972;2024-02-26T01:14:04;1.73;;;1.05;;
11709;SDS011;5911;51.036;6.972;2024-02-26T01:16:32;0.90;;;0.87;;
11709;SDS011;5911;51.036;6.972;2024-02-26T01:18:59;1.00;;;0.90;;
11709;SDS011;5911;51.036;6.972;2024-02-26T01:21:27;1.03;;;0.77;;
11709;SDS011;5911;51.036;6.972;2024-02-26T01:23:56;1.50;;;1.00;;
11709;SDS011;5911;51.036;6.972;2024-02-26T01:26:23;1.20;;;0.80;;
11709;SDS011;5911;51.036;6.972;2024-02-26T01:28:52;1.20;;;0.90;;
11709;SDS011;5911;51.036;6.972;2024-02-26T01:31:21;1.33;;;0.70;;
11709;SDS011;5911;51.036;6.972;2024-02-26T01:33:48;0.87;;;0.70;;
11709;SDS011;5911;51.036;6.972;2024-02-26T01:36:16;0.80;;;0.80;;
11709;SDS011;5911;51.036;6.972;2024-02-26T01:38:43;0.90;;;0.80;;
11709;SDS011;5911;51.036;6.972;2024-02-26T01:41:13;1.00;;;0.90;;
11709;SDS011;5911;51.036;6.972;2024-02-26T01:43:40;1.03;;;0.80;;
11709;SDS011;5911;51.036;6.972;2024-02-26T01:46:09;1.00;;;0.70;;
11709;SDS011;5911;51.036;6.972;2024-02-26T01:48:40;0.77;;;0.70;;
11709;SDS011;5911;51.036;6.972;2024-02-26T01:51:08;0.73;;;0.73;;
11709;SDS011;5911;51.036;6.972;2024-02-26T01:53:35;0.83;;;0.83;;
11709;SDS011;5911;51.036;6.972;2024-02-26T01:56:03;1.10;;;0.80;;
11709;SDS011;5911;51.036;6.972;2024-02-26T01:58:31;1.00;;;0.90;;
11709;SDS011;5911;51.036;6.972;2024-02-26T02:00:59;1.33;;;0.87;;
11709;SDS011;5911;51.036;6.972;2024-02-26T02:03:29;1.00;;;0.73;;
11709;SDS011;5911;51.036;6.972;2024-02-26T02:05:58;1.23;;;0.82;;
11709;SDS011;5911;51.036;6.972;2024-02-26T02:08:25;1.27;;;1.07;;
11709;SDS011;5911;51.036;6.972;2024-02-26T02:10:53;2.50;;;0.93;;
11709;SDS011;5911;51.036;6.972;2024-02-26T02:13:21;0.68;;;0.68;;
11709;SDS011;5911;51.036;6.972;2024-02-26T02:15:48;0.90;;;0.70;;
11709;SDS011;5911;51.036;6.972;2024-02-26T02:18:16;1.20;;;0.80;;
11709;SDS011;5911;51.036;6.972;2024-02-26T02:20:45;0.90;;;0.70;;
11709;SDS011;5911;51.036;6.972;2024-02-26T02:23:12;0.63;;;0.63;;
11709;SDS011;5911;51.036;6.972;2024-02-26T02:25:40;0.90;;;0.73;;
11709;SDS011;5911;51.036;6.972;2024-02-26T02:28:07;1.30;;;0.80;;
11709;SDS011;5911;51.036;6.972;2024-02-26T02:30:35;0.80;;;0.80;;
11709;SDS011;5911;51.036;6.972;2024-02-26T02:33:03;1.65;;;0.88;;
11709;SDS011;5911;51.036;6.972;2024-02-26T02:35:30;1.50;;;0.93;;
11709;SDS011;5911;51.036;6.972;2024-02-26T02:37:59;0.93;;;0.85;;
11709;SDS011;5911;51.036;6.972;2024-02-26T02:40:27;1.43;;;1.03;;
11709;SDS011;5911;51.036;6.972;2024-02-26T02:42:54;0.80;;;0.70;;
11709;SDS011;5911;51.036;6.972;2024-02-26T02:45:22;1.60;;;0.87;;
11709;SDS011;5911;51.036;6.972;2024-02-26T02:47:49;0.80;;;0.80;;
11709;SDS011;5911;51.036;6.972;2024-02-26T02:50:17;0.60;;;0.60;;
11709;SDS011;5911;51.036;6.972;2024-02-26T02:52:45;1.02;;;0.90;;
11709;SDS011;5911;51.036;6.972;2024-02-26T02:55:13;0.75;;;0.70;;
11709;SDS011;5911;51.036;6.972;2024-02-26T02:57:41;0.65;;;0.65;;
11709;SDS011;5911;51.036;6.972;2024-02-26T03:00:09;1.10;;;0.77;;
11709;SDS011;5911;51.036;6.972;2024-02-26T03:02:37;1.90;;;0.80;;
11709;SDS011;5911;51.036;6.972;2024-02-26T03:05:05;0.70;;;0.70;;
11709;SDS011;5911;51.036;6.972;2024-02-26T03:07:33;1.10;;;0.93;;
11709;SDS011;5911;51.036;6.972;2024-02-26T03:10:00;0.70;;;0.70;;
11709;SDS011;5911;51.036;6.972;2024-02-26T03:12:29;1.57;;;0.80;;
11709;SDS011;5911;51.036;6.972;2024-02-26T03:14:57;1.13;;;0.80;;
11709;SDS011;5911;51.036;6.972;2024-02-26T03:17:24;1.00;;;0.83;;
11709;SDS011;5911;51.036;6.972;2024-02-26T03:19:52;1.15;;;1.00;;
11709;SDS011;5911;51.036;6.972;2024-02-26T03:22:20;1.20;;;0.80;;
11709;SDS011;5911;51.036;6.972;2024-02-26T03:24:48;2.40;;;0.90;;
11709;SDS011;5911;51.036;6.972;2024-02-26T03:27:15;1.27;;;0.80;;
11709;SDS011;5911;51.036;6.972;2024-02-26T03:29:44;1.00;;;0.70;;
11709;SDS011;5911;51.036;6.972;2024-02-26T03:32:12;1.20;;;1.00;;
11709;SDS011;5911;51.036;6.972;2024-02-26T03:34:39;1.10;;;0.80;;
11709;SDS011;5911;51.036;6.972;2024-02-26T03:37:07;1.20;;;0.80;;
11709;SDS011;5911;51.036;6.972;2024-02-26T03:39:36;0.77;;;0.77;;
11709;SDS011;5911;51.036;6.972;2024-02-26T03:42:05;0.80;;;0.77;;
11709;SDS011;5911;51.036;6.972;2024-02-26T03:44:32;0.90;;;0.77;;
11709;SDS011;5911;51.036;6.972;2024-02-26T03:47:01;1.80;;;1.13;;
11709;SDS011;5911;51.036;6.972;2024-02-26T03:49:29;0.83;;;0.83;;
11709;SDS011;5911;51.036;6.972;2024-02-26T03:51:56;1.02;;;0.88;;
11709;SDS011;5911;51.036;6.972;2024-02-26T03:54:24;1.10;;;0.80;;
11709;SDS011;5911;51.036;6.972;2024-02-26T03:56:51;0.83;;;0.80;;
11709;SDS011;5911;51.036;6.972;2024-02-26T03:59:19;0.73;;;0.73;;
11709;SDS011;5911;51.036;6.972;2024-02-26T04:01:48;1.98;;;1.08;;
11709;SDS011;5911;51.036;6.972;2024-02-26T04:04:17;1.30;;;0.85;;
11709;SDS011;5911;51.036;6.972;2024-02-26T04:06:44;0.80;;;0.80;;
11709;SDS011;5911;51.036;6.972;2024-02-26T04:09:13;0.97;;;0.80;;
11709;SDS011;5911;51.036;6.972;2024-02-26T04:11:41;1.15;;;0.80;;
11709;SDS011;5911;51.036;6.972;2024-02-26T04:14:09;1.07;;;0.90;;
11709;SDS011;5911;51.036;6.972;2024-02-26T04:16:38;0.97;;;0.80;;
11709;SDS011;5911;51.036;6.972;2024-02-26T04:19:06;1.10;;;0.97;;
11709;SDS011;5911;51.036;6.972;2024-02-26T04:21:35;3.70;;;0.85;;
11709;SDS011;5911;51.036;6.972;2024-02-26T04:24:03;1.87;;;1.10;;
11709;SDS011;5911;51.036;6.972;2024-02-26T04:26:30;0.70;;;0.70;;
11709;SDS011;5911;51.036;6.972;2024-02-26T04:28:58;0.90;;;0.70;;
11709;SDS011;5911;51.036;6.972;2024-02-26T04:31:26;1.50;;;0.90;;
11709;SDS011;5911;51.036;6.972;2024-02-26T04:33:54;2.70;;;1.10;;
11709;SDS011;5911;51.036;6.972;2024-02-26T04:36:22;0.93;;;0.80;;
11709;SDS011;5911;51.036;6.972;2024-02-26T04:38:51;1.27;;;0.80;;
11709;SDS011;5911;51.036;6.972;2024-02-26T04:41:20;0.93;;;0.83;;
11709;SDS011;5911;51.036;6.972;2024-02-26T04:43:48;1.30;;;1.17;;
11709;SDS011;5911;51.036;6.972;2024-02-26T04:46:15;1.40;;;1.10;;
11709;SDS011;5911;51.036;6.972;2024-02-26T04:48:43;1.20;;;1.07;;
11709;SDS011;5911;51.036;6.972;2024-02-26T04:51:13;2.40;;;1.00;;
11709;SDS011;5911;51.036;6.972;2024-02-26T04:53:40;1.50;;;1.10;;
11709;SDS011;5911;51.036;6.972;2024-02-26T04:56:08;1.57;;;0.90;;
11709;SDS011;5911;51.036;6.972;2024-02-26T04:58:35;1.10;;;1.00;;
11709;SDS011;5911;51.036;6.972;2024-02-26T05:01:03;0.97;;;0.90;;
11709;SDS011;5911;51.036;6.972;2024-02-26T05:03:31;1.17;;;0.90;;
11709;SDS011;5911;51.036;6.972;2024-02-26T05:06:03;0.80;;;0.80;;
11709;SDS011;5911;51.036;6.972;2024-02-26T05:08:31;1.27;;;0.77;;
11709;SDS011;5911;51.036;6.972;2024-02-26T05:10:59;2.00;;;1.03;;
11709;SDS011;5911;51.036;6.972;2024-02-26T05:13:30;1.87;;;1.07;;
11709;SDS011;5911;51.036;6.972;2024-02-26T05:15:57;1.47;;;0.93;;
11709;SDS011;5911;51.036;6.972;2024-02-26T05:18:25;1.20;;;1.10;;
11709;SDS011;5911;51.036;6.972;2024-02-26T05:20:52;2.07;;;1.10;;
11709;SDS011;5911;51.036;6.972;2024-02-26T05:23:20;1.93;;;1.30;;
11709;SDS011;5911;51.036;6.972;2024-02-26T05:25:49;1.80;;;1.30;;
11709;SDS011;5911;51.036;6.972;2024-02-26T05:28:16;1.50;;;1.20;;
11709;SDS011;5911;51.036;6.972;2024-02-26T05:30:48;1.60;;;1.07;;
11709;SDS011;5911;51.036;6.972;2024-02-26T05:33:15;1.20;;;1.03;;
11709;SDS011;5911;51.036;6.972;2024-02-26T05:35:44;1.63;;;1.03;;
11709;SDS011;5911;51.036;6.972;2024-02-26T05:38:12;1.77;;;1.20;;
11709;SDS011;5911;51.036;6.972;2024-02-26T05:40:39;2.10;;;1.10;;
11709;SDS011;5911;51.036;6.972;2024-02-26T05:43:07;1.47;;;1.13;;
11709;SDS011;5911;51.036;6.972;2024-02-26T05:45:34;1.83;;;1.20;;
11709;SDS011;5911;51.036;6.972;2024-02-26T05:48:03;1.23;;;0.90;;
11709;SDS011;5911;51.036;6.972;2024-02-26T05:50:31;1.20;;;0.98;;
11709;SDS011;5911;51.036;6.972;2024-02-26T05:52:59;1.30;;;1.10;;
11709;SDS011;5911;51.036;6.972;2024-02-26T05:55:26;1.33;;;1.00;;
11709;SDS011;5911;51.036;6.972;2024-02-26T05:57:54;1.33;;;1.23;;
11709;SDS011;5911;51.036;6.972;2024-02-26T06:00:21;1.20;;;1.10;;
11709;SDS011;5911;51.036;6.972;2024-02-26T06:02:49;1.63;;;1.33;;
11709;SDS011;5911;51.036;6.972;2024-02-26T06:05:18;1.33;;;1.23;;
11709;SDS011;5911;51.036;6.972;2024-02-26T06:07:46;1.00;;;0.90;;
11709;SDS011;5911;51.036;6.972;2024-02-26T06:10:13;1.40;;;1.10;;
11709;SDS011;5911;51.036;6.972;2024-02-26T06:12:41;1.95;;;1.05;;
11709;SDS011;5911;51.036;6.972;2024-02-26T06:15:09;1.80;;;1.27;;
11709;SDS011;5911;51.036;6.972;2024-02-26T06:17:36;1.35;;;1.25;;
11709;SDS011;5911;51.036;6.972;2024-02-26T06:20:04;1.30;;;1.10;;
11709;SDS011;5911;51.036;6.972;2024-02-26T06:22:34;1.53;;;1.10;;
11709;SDS011;5911;51.036;6.972;2024-02-26T06:25:02;1.53;;;1.10;;
11709;SDS011;5911;51.036;6.972;2024-02-26T06:27:29;1.43;;;1.33;;
11709;SDS011;5911;51.036;6.972;2024-02-26T06:29:57;2.43;;;1.50;;
11709;SDS011;5911;51.036;6.972;2024-02-26T06:32:25;2.73;;;1.03;;
11709;SDS011;5911;51.036;6.972;2024-02-26T06:34:54;2.07;;;1.40;;
11709;SDS011;5911;51.036;6.972;2024-02-26T06:37:22;1.50;;;1.40;;
11709;SDS011;5911;51.036;6.972;2024-02-26T06:39:50;2.23;;;1.17;;
11709;SDS011;5911;51.036;6.972;2024-02-26T06:42:18;1.42;;;1.30;;
11709;SDS011;5911;51.036;6.972;2024-02-26T06:44:46;1.43;;;1.13;;
11709;SDS011;5911;51.036;6.972;2024-02-26T06:47:13;2.90;;;1.30;;
11709;SDS011;5911;51.036;6.972;2024-02-26T06:49:41;2.57;;;1.20;;
11709;SDS011;5911;51.036;6.972;2024-02-26T06:52:10;3.00;;;1.50;;
11709;SDS011;5911;51.036;6.972;2024-02-26T06:54:37;1.87;;;1.20;;
11709;SDS011;5911;51.036;6.972;2024-02-26T06:57:06;2.13;;;1.60;;
11709;SDS011;5911;51.036;6.972;2024-02-26T06:59:33;1.40;;;1.30;;
11709;SDS011;5911;51.036;6.972;2024-02-26T07:02:01;1.55;;;1.38;;
11709;SDS011;5911;51.036;6.972;2024-02-26T07:04:28;2.20;;;1.70;;
11709;SDS011;5911;51.036;6.972;2024-02-26T07:06:58;2.55;;;1.35;;
11709;SDS011;5911;51.036;6.972;2024-02-26T07:09:26;1.60;;;1.50;;
11709;SDS011;5911;51.036;6.972;2024-02-26T07:11:53;1.90;;;1.67;;
11709;SDS011;5911;51.036;6.972;2024-02-26T07:14:26;1.67;;;1.37;;
11709;SDS011;5911;51.036;6.972;2024-02-26T07:16:54;4.60;;;1.70;;
11709;SDS011;5911;51.036;6.972;2024-02-26T07:19:21;1.42;;;1.33;;
11709;SDS011;5911;51.036;6.972;2024-02-26T07:21:49;1.50;;;1.40;;
11709;SDS011;5911;51.036;6.972;2024-02-26T07:24:16;1.77;;;1.40;;
11709;SDS011;5911;51.036;6.972;2024-02-26T07:26:44;1.53;;;1.40;;
11709;SDS011;5911;51.036;6.972;2024-02-26T07:29:11;2.20;;;1.33;;
11709;SDS011;5911;51.036;6.972;2024-02-26T07:31:40;2.70;;;1.20;;
11709;SDS011;5911;51.036;6.972;2024-02-26T07:34:08;1.90;;;1.40;;
11709;SDS011;5911;51.036;6.972;2024-02-26T07:36:36;1.98;;;1.40;;
11709;SDS011;5911;51.036;6.972;2024-02-26T07:39:04;2.13;;;1.37;;
11709;SDS011;5911;51.036;6.972;2024-02-26T07:41:31;1.80;;;1.60;;
11709;SDS011;5911;51.036;6.972;2024-02-26T07:43:59;1.63;;;1.50;;
11709;SDS011;5911;51.036;6.972;2024-02-26T07:46:27;1.30;;;1.20;;
11709;SDS011;5911;51.036;6.972;2024-02-26T07:48:55;1.77;;;1.47;;
11709;SDS011;5911;51.036;6.972;2024-02-26T07:51:23;2.03;;;1.30;;
11709;SDS011;5911;51.036;6.972;2024-02-26T07:53:52;1.70;;;1.40;;
11709;SDS011;5911;51.036;6.972;2024-02-26T07:56:20;1.60;;;1.50;;
11709;SDS011;5911;51.036;6.972;2024-02-26T07:58:47;2.07;;;1.50;;
11709;SDS011;5911;51.036;6.972;2024-02-26T08:01:15;2.07;;;1.60;;
11709;SDS011;5911;51.036;6.972;2024-02-26T08:03:42;2.70;;;1.43;;
11709;SDS011;5911;51.036;6.972;2024-02-26T08:06:11;2.03;;;1.50;;
11709;SDS011;5911;51.036;6.972;2024-02-26T08:08:39;1.77;;;1.45;;
11709;SDS011;5911;51.036;6.972;2024-02-26T08:11:06;1.60;;;1.50;;
11709;SDS011;5911;51.036;6.972;2024-02-26T08:13:35;2.43;;;1.40;;
11709;SDS011;5911;51.036;6.972;2024-02-26T08:16:03;1.20;;;1.10;;
11709;SDS011;5911;51.036;6.972;2024-02-26T08:18:30;1.93;;;1.63;;
11709;SDS011;5911;51.036;6.972;2024-02-26T08:20:58;1.90;;;1.40;;
11709;SDS011;5911;51.036;6.972;2024-02-26T08:23:27;2.60;;;1.40;;
11709;SDS011;5911;51.036;6.972;2024-02-26T08:25:55;2.27;;;1.43;;
11709;SDS011;5911;51.036;6.972;2024-02-26T08:28:22;1.63;;;1.50;;
11709;SDS011;5911;51.036;6.972;2024-02-26T08:30:51;3.23;;;2.33;;
11709;SDS011;5911;51.036;6.972;2024-02-26T08:33:18;3.13;;;2.70;;
11709;SDS011;5911;51.036;6.972;2024-02-26T08:35:46;2.87;;;2.13;;
11709;SDS011;5911;51.036;6.972;2024-02-26T08:38:13;2.53;;;2.10;;
11709;SDS011;5911;51.036;6.972;2024-02-26T08:40:43;3.40;;;2.17;;
11709;SDS011;5911;51.036;6.972;2024-02-26T08:43:10;3.17;;;2.30;;
11709;SDS011;5911;51.036;6.972;2024-02-26T08:45:38;3.17;;;2.10;;
11709;SDS011;5911;51.036;6.972;2024-02-26T08:48:06;2.60;;;2.00;;
11709;SDS011;5911;51.036;6.972;2024-02-26T08:50:34;1.70;;;1.60;;
11709;SDS011;5911;51.036;6.972;2024-02-26T08:53:01;1.57;;;1.47;;
11709;SDS011;5911;51.036;6.972;2024-02-26T08:55:33;2.50;;;1.60;;
11709;SDS011;5911;51.036;6.972;2024-02-26T08:58:02;2.53;;;1.70;;
11709;SDS011;5911;51.036;6.972;2024-02-26T09:00:29;4.17;;;1.83;;
11709;SDS011;5911;51.036;6.972;2024-02-26T09:02:57;2.17;;;1.43;;
11709;SDS011;5911;51.036;6.972;2024-02-26T09:05:30;1.43;;;1.33;;
11709;SDS011;5911;51.036;6.972;2024-02-26T09:07:58;2.17;;;1.73;;
11709;SDS011;5911;51.036;6.972;2024-02-26T09:10:25;3.07;;;1.57;;
11709;SDS011;5911;51.036;6.972;2024-02-26T09:12:52;1.70;;;1.60;;
11709;SDS011;5911;51.036;6.972;2024-02-26T09:15:22;2.07;;;1.53;;
11709;SDS011;5911;51.036;6.972;2024-02-26T09:17:50;2.87;;;1.50;;
11709;SDS011;5911;51.036;6.972;2024-02-26T09:20:18;1.90;;;1.60;;
11709;SDS011;5911;51.036;6.972;2024-02-26T09:22:48;2.10;;;1.53;;
11709;SDS011;5911;51.036;6.972;2024-02-26T09:25:15;2.20;;;1.40;;
11709;SDS011;5911;51.036;6.972;2024-02-26T09:27:43;2.10;;;1.50;;
11709;SDS011;5911;51.036;6.972;2024-02-26T09:30:11;2.00;;;1.60;;
11709;SDS011;5911;51.036;6.972;2024-02-26T09:32:40;2.23;;;1.60;;
11709;SDS011;5911;51.036;6.972;2024-02-26T09:35:08;1.53;;;1.40;;
11709;SDS011;5911;51.036;6.972;2024-02-26T09:37:36;2.37;;;1.53;;
11709;SDS011;5911;51.036;6.972;2024-02-26T09:40:03;1.70;;;1.60;;
11709;SDS011;5911;51.036;6.972;2024-02-26T09:42:32;1.80;;;1.60;;
11709;SDS011;5911;51.036;6.972;2024-02-26T09:45:02;1.70;;;1.60;;
11709;SDS011;5911;51.036;6.972;2024-02-26T09:47:35;2.43;;;1.50;;
11709;SDS011;5911;51.036;6.972;2024-02-26T09:50:05;1.93;;;1.63;;
11709;SDS011;5911;51.036;6.972;2024-02-26T09:52:35;1.80;;;1.50;;
11709;SDS011;5911;51.036;6.972;2024-02-26T09:55:05;2.10;;;1.80;;
11709;SDS011;5911;51.036;6.972;2024-02-26T09:57:34;2.10;;;1.67;;
11709;SDS011;5911;51.036;6.972;2024-02-26T10:00:02;2.10;;;1.60;;
11709;SDS011;5911;51.036;6.972;2024-02-26T10:02:33;2.43;;;1.50;;
11709;SDS011;5911;51.036;6.972;2024-02-26T10:05:04;2.67;;;1.70;;
11709;SDS011;5911;51.036;6.972;2024-02-26T10:07:32;1.90;;;1.70;;
11709;SDS011;5911;51.036;6.972;2024-02-26T10:10:00;2.57;;;1.73;;
11709;SDS011;5911;51.036;6.972;2024-02-26T10:12:27;2.43;;;1.60;;
11709;SDS011;5911;51.036;6.972;2024-02-26T10:14:55;2.00;;;1.80;;
11709;SDS011;5911;51.036;6.972;2024-02-26T10:17:23;3.27;;;2.33;;
11709;SDS011;5911;51.036;6.972;2024-02-26T10:19:51;3.73;;;2.03;;
11709;SDS011;5911;51.036;6.972;2024-02-26T10:22:24;2.25;;;1.80;;
11709;SDS011;5911;51.036;6.972;2024-02-26T10:24:53;2.07;;;1.53;;
11709;SDS011;5911;51.036;6.972;2024-02-26T10:27:22;2.20;;;1.67;;
11709;SDS011;5911;51.036;6.972;2024-02-26T10:29:49;1.92;;;1.73;;
11709;SDS011;5911;51.036;6.972;2024-02-26T10:32:18;2.07;;;1.83;;
11709;SDS011;5911;51.036;6.972;2024-02-26T10:34:45;2.50;;;1.97;;
11709;SDS011;5911;51.036;6.972;2024-02-26T10:37:13;1.80;;;1.70;;
11709;SDS011;5911;51.036;6.972;2024-02-26T10:39:45;4.33;;;2.03;;
11709;SDS011;5911;51.036;6.972;2024-02-26T10:42:13;2.33;;;1.90;;
11709;SDS011;5911;51.036;6.972;2024-02-26T10:44:41;4.30;;;2.00;;
11709;SDS011;5911;51.036;6.972;2024-02-26T10:47:09;2.27;;;1.80;;
11709;SDS011;5911;51.036;6.972;2024-02-26T10:49:37;3.67;;;2.10;;
11709;SDS011;5911;51.036;6.972;2024-02-26T10:52:05;2.30;;;1.90;;
11709;SDS011;5911;51.036;6.972;2024-02-26T10:54:33;2.17;;;1.98;;
11709;SDS011;5911;51.036;6.972;2024-02-26T10:57:03;3.07;;;1.93;;
11709;SDS011;5911;51.036;6.972;2024-02-26T10:59:31;3.17;;;2.45;;
11709;SDS011;5911;51.036;6.972;2024-02-26T11:02:00;2.92;;;2.20;;
11709;SDS011;5911;51.036;6.972;2024-02-26T11:04:27;2.60;;;2.37;;
11709;SDS011;5911;51.036;6.972;2024-02-26T11:06:56;4.22;;;2.05;;
11709;SDS011;5911;51.036;6.972;2024-02-26T11:09:24;2.27;;;2.07;;
11709;SDS011;5911;51.036;6.972;2024-02-26T11:11:52;2.93;;;2.10;;
11709;SDS011;5911;51.036;6.972;2024-02-26T11:14:23;3.40;;;2.13;;
11709;SDS011;5911;51.036;6.972;2024-02-26T11:16:52;2.30;;;1.93;;
11709;SDS011;5911;51.036;6.972;2024-02-26T11:19:20;2.23;;;2.00;;
11709;SDS011;5911;51.036;6.972;2024-02-26T11:21:48;2.23;;;2.00;;
11709;SDS011;5911;51.036;6.972;2024-02-26T11:24:16;2.38;;;1.80;;
11709;SDS011;5911;51.036;6.972;2024-02-26T11:26:45;2.83;;;2.13;;
11709;SDS011;5911;51.036;6.972;2024-02-26T11:29:15;2.73;;;2.07;;
11709;SDS011;5911;51.036;6.972;2024-02-26T11:31:46;3.22;;;1.73;;
11709;SDS011;5911;51.036;6.972;2024-02-26T11:34:13;2.07;;;1.87;;
11709;SDS011;5911;51.036;6.972;2024-02-26T11:36:41;2.85;;;1.92;;
11709;SDS011;5911;51.036;6.972;2024-02-26T11:39:10;3.27;;;1.83;;
11709;SDS011;5911;51.036;6.972;2024-02-26T11:41:38;2.53;;;2.07;;
11709;SDS011;5911;51.036;6.972;2024-02-26T11:44:06;2.40;;;2.00;;
11709;SDS011;5911;51.036;6.972;2024-02-26T11:46:39;3.57;;;2.03;;
11709;SDS011;5911;51.036;6.972;2024-02-26T11:51:52;2.07;;;1.83;;
11709;SDS011;5911;51.036;6.972;2024-02-26T11:57:03;2.50;;;2.20;;
11709;SDS011;5911;51.036;6.972;2024-02-26T11:59:37;3.00;;;2.05;;
11709;SDS011;5911;51.036;6.972;2024-02-26T12:02:05;2.65;;;2.15;;
11709;SDS011;5911;51.036;6.972;2024-02-26T12:04:34;2.70;;;2.20;;
11709;SDS011;5911;51.036;6.972;2024-02-26T12:07:04;2.42;;;2.00;;
11709;SDS011;5911;51.036;6.972;2024-02-26T12:09:36;3.50;;;2.80;;
11709;SDS011;5911;51.036;6.972;2024-02-26T12:12:04;3.60;;;2.72;;
11709;SDS011;5911;51.036;6.972;2024-02-26T12:14:33;3.27;;;2.57;;
11709;SDS011;5911;51.036;6.972;2024-02-26T12:17:00;3.37;;;2.40;;
11709;SDS011;5911;51.036;6.972;2024-02-26T12:19:28;2.97;;;2.33;;
11709;SDS011;5911;51.036;6.972;2024-02-26T12:21:57;2.30;;;1.93;;
11709;SDS011;5911;51.036;6.972;2024-02-26T12:24:26;3.17;;;2.33;;
11709;SDS011;5911;51.036;6.972;2024-02-26T12:26:54;3.43;;;2.27;;
11709;SDS011;5911;51.036;6.972;2024-02-26T12:29:22;3.72;;;2.45;;
11709;SDS011;5911;51.036;6.972;2024-02-26T12:31:49;2.40;;;2.20;;
11709;SDS011;5911;51.036;6.972;2024-02-26T12:34:17;3.80;;;2.63;;
11709;SDS011;5911;51.036;6.972;2024-02-26T12:36:44;2.55;;;2.15;;
11709;SDS011;5911;51.036;6.972;2024-02-26T12:39:12;3.73;;;2.50;;
11709;SDS011;5911;51.036;6.972;2024-02-26T12:41:41;3.63;;;2.60;;
11709;SDS011;5911;51.036;6.972;2024-02-26T12:44:15;3.23;;;2.50;;
11709;SDS011;5911;51.036;6.972;2024-02-26T12:46:43;2.77;;;2.40;;
11709;SDS011;5911;51.036;6.972;2024-02-26T12:49:14;3.30;;;2.60;;
11709;SDS011;5911;51.036;6.972;2024-02-26T12:51:42;2.78;;;2.33;;
11709;SDS011;5911;51.036;6.972;2024-02-26T12:54:10;3.10;;;2.53;;
11709;SDS011;5911;51.036;6.972;2024-02-26T12:56:38;2.42;;;2.22;;
11709;SDS011;5911;51.036;6.972;2024-02-26T12:59:07;3.20;;;2.63;;
11709;SDS011;5911;51.036;6.972;2024-02-26T13:01:35;3.47;;;2.63;;
11709;SDS011;5911;51.036;6.972;2024-02-26T13:04:03;2.90;;;2.50;;
11709;SDS011;5911;51.036;6.972;2024-02-26T13:06:33;3.17;;;2.40;;
11709;SDS011;5911;51.036;6.972;2024-02-26T13:09:01;3.10;;;2.80;;
11709;SDS011;5911;51.036;6.972;2024-02-26T13:11:29;4.70;;;2.90;;
11709;SDS011;5911;51.036;6.972;2024-02-26T13:13:57;5.03;;;3.10;;
11709;SDS011;5911;51.036;6.972;2024-02-26T13:16:26;4.17;;;2.90;;
11709;SDS011;5911;51.036;6.972;2024-02-26T13:18:54;3.73;;;3.00;;
11709;SDS011;5911;51.036;6.972;2024-02-26T13:21:21;4.53;;;3.20;;
11709;SDS011;5911;51.036;6.972;2024-02-26T13:23:51;4.47;;;2.67;;
11709;SDS011;5911;51.036;6.972;2024-02-26T13:26:21;4.67;;;3.43;;
11709;SDS011;5911;51.036;6.972;2024-02-26T13:28:59;3.90;;;3.40;;
11709;SDS011;5911;51.036;6.972;2024-02-26T13:31:29;4.70;;;3.83;;
11709;SDS011;5911;51.036;6.972;2024-02-26T13:33:56;4.22;;;3.53;;
11709;SDS011;5911;51.036;6.972;2024-02-26T13:36:24;4.30;;;3.60;;
11709;SDS011;5911;51.036;6.972;2024-02-26T13:38:52;4.63;;;3.73;;
11709;SDS011;5911;51.036;6.972;2024-02-26T13:41:20;3.77;;;3.43;;
11709;SDS011;5911;51.036;6.972;2024-02-26T13:43:48;5.17;;;4.07;;
11709;SDS011;5911;51.036;6.972;2024-02-26T13:46:15;4.67;;;4.00;;
11709;SDS011;5911;51.036;6.972;2024-02-26T13:48:45;5.97;;;4.05;;
11709;SDS011;5911;51.036;6.972;2024-02-26T13:51:12;5.53;;;4.32;;
11709;SDS011;5911;51.036;6.972;2024-02-26T13:53:40;5.80;;;4.10;;
11709;SDS011;5911;51.036;6.972;2024-02-26T13:56:07;4.67;;;4.20;;
11709;SDS011;5911;51.036;6.972;2024-02-26T13:58:35;5.45;;;4.28;;
11709;SDS011;5911;51.036;6.972;2024-02-26T14:01:03;5.95;;;4.57;;
11709;SDS011;5911;51.036;6.972;2024-02-26T14:03:31;4.70;;;4.20;;
11709;SDS011;5911;51.036;6.972;2024-02-26T14:06:01;5.25;;;4.60;;
11709;SDS011;5911;51.036;6.972;2024-02-26T14:08:28;5.37;;;4.00;;
11709;SDS011;5911;51.036;6.972;2024-02-26T14:10:56;4.90;;;4.05;;
11709;SDS011;5911;51.036;6.972;2024-02-26T14:13:23;4.73;;;4.23;;
11709;SDS011;5911;51.036;6.972;2024-02-26T14:15:54;4.57;;;4.13;;
11709;SDS011;5911;51.036;6.972;2024-02-26T14:18:22;7.68;;;5.07;;
11709;SDS011;5911;51.036;6.972;2024-02-26T14:20:50;6.93;;;4.68;;
11709;SDS011;5911;51.036;6.972;2024-02-26T14:23:19;6.73;;;5.13;;
11709;SDS011;5911;51.036;6.972;2024-02-26T14:25:48;5.38;;;4.80;;
11709;SDS011;5911;51.036;6.972;2024-02-26T14:28:16;5.55;;;4.93;;
11709;SDS011;5911;51.036;6.972;2024-02-26T14:30:51;5.70;;;4.55;;
11709;SDS011;5911;51.036;6.972;2024-02-26T14:33:18;6.78;;;5.22;;
11709;SDS011;5911;51.036;6.972;2024-02-26T14:35:46;6.80;;;5.47;;
11709;SDS011;5911;51.036;6.972;2024-02-26T14:38:13;6.10;;;5.35;;
11709;SDS011;5911;51.036;6.972;2024-02-26T14:40:43;6.43;;;5.53;;
11709;SDS011;5911;51.036;6.972;2024-02-26T14:43:10;6.53;;;5.78;;
11709;SDS011;5911;51.036;6.972;2024-02-26T14:45:38;7.38;;;5.93;;
11709;SDS011;5911;51.036;6.972;2024-02-26T14:48:06;8.17;;;6.20;;
11709;SDS011;5911;51.036;6.972;2024-02-26T14:50:34;8.75;;;5.60;;
11709;SDS011;5911;51.036;6.972;2024-02-26T14:53:02;8.97;;;6.03;;
11709;SDS011;5911;51.036;6.972;2024-02-26T14:55:29;6.83;;;6.03;;
11709;SDS011;5911;51.036;6.972;2024-02-26T14:57:58;6.97;;;5.95;;
11709;SDS011;5911;51.036;6.972;2024-02-26T15:00:26;7.07;;;6.10;;
11709;SDS011;5911;51.036;6.972;2024-02-26T15:02:54;8.10;;;6.97;;
11709;SDS011;5911;51.036;6.972;2024-02-26T15:05:22;7.63;;;6.63;;
11709;SDS011;5911;51.036;6.972;2024-02-26T15:07:50;9.07;;;7.10;;
11709;SDS011;5911;51.036;6.972;2024-02-26T15:10:18;9.20;;;7.78;;